Time;durP1;ratioP1;P1;durP2;ratioP2;P2;SDS_P1;SDS_P2;PMS_P1;PMS_P2;Temp;Humidity;BMP_temperature;BMP_pressure;BME280_temperature;BME280_humidity;BME280_pressure;Samples;Min_cycle;Max_cycle;Signal;HPM_P1;HPM_P2
2022/06/08 00:01:33;;;;;;;10.65;7.35;;;;;;;11.60;100.00;100835.03;5013705;28;20172;-44
2022/06/08 00:04:01;;;;;;;11.93;7.60;;;;;;;11.58;100.00;100842.25;5013759;28;20204;-46
2022/06/08 00:06:27;;;;;;;13.60;6.78;;;;;;;11.63;100.00;100829.50;5013497;28;20165;-49
2022/06/08 00:08:52;;;;;;;15.20;8.20;;;;;;;11.60;100.00;100837.69;5013740;28;20180;-45
2022/06/08 00:11:18;;;;;;;12.52;7.50;;;;;;;11.52;100.00;100829.97;5013212;28;20188;-45
2022/06/08 00:13:44;;;;;;;11.68;7.10;;;;;;;11.57;100.00;100827.97;5013623;28;20210;-44
2022/06/08 00:16:11;;;;;;;13.05;7.22;;;;;;;11.54;100.00;100831.66;5013390;28;20223;-46
2022/06/08 00:18:39;;;;;;;11.90;7.07;;;;;;;11.52;100.00;100819.22;5013188;28;20169;-45
2022/06/08 00:21:05;;;;;;;13.85;7.20;;;;;;;11.53;100.00;100819.19;5013555;28;20160;-41
2022/06/08 00:23:31;;;;;;;11.95;7.50;;;;;;;11.45;100.00;100820.44;5012047;28;20212;-49
2022/06/08 00:25:57;;;;;;;11.98;6.78;;;;;;;11.44;100.00;100822.25;5012527;28;20211;-49
2022/06/08 00:28:22;;;;;;;13.80;7.70;;;;;;;11.45;100.00;100810.56;5012797;28;20177;-48
2022/06/08 00:30:48;;;;;;;10.05;7.53;;;;;;;11.31;100.00;100813.84;5012631;28;20741;-46
2022/06/08 00:33:13;;;;;;;14.00;7.40;;;;;;;11.41;100.00;100813.44;5012422;28;20181;-47
2022/06/08 00:35:39;;;;;;;13.85;6.95;;;;;;;11.39;100.00;100807.28;5012306;28;20328;-50
2022/06/08 00:38:05;;;;;;;11.30;6.93;;;;;;;11.43;100.00;100815.13;5010693;28;20180;-48
2022/06/08 00:40:43;;;;;;;12.57;7.43;;;;;;;11.42;100.00;100812.53;5012355;28;20583;-50
2022/06/08 00:43:08;;;;;;;10.05;7.32;;;;;;;11.36;100.00;100815.47;5010674;28;20247;-48
2022/06/08 00:45:35;;;;;;;11.40;7.68;;;;;;;11.37;100.00;100803.78;5012418;28;20185;-47
2022/06/08 00:48:05;;;;;;;14.18;7.88;;;;;;;11.38;100.00;100806.41;5012003;28;20181;-48
2022/06/08 00:50:42;;;;;;;17.25;8.50;;;;;;;11.44;100.00;100810.66;5012712;28;20648;-46
2022/06/08 00:53:11;;;;;;;12.40;7.63;;;;;;;11.46;100.00;100806.09;5011158;28;20178;-47
2022/06/08 00:55:39;;;;;;;18.90;8.50;;;;;;;11.43;100.00;100804.38;5012500;28;20640;-47
2022/06/08 00:58:13;;;;;;;15.80;8.02;;;;;;;11.43;100.00;100796.34;5012336;28;20803;-49
2022/06/08 01:00:40;;;;;;;14.32;8.23;;;;;;;11.47;100.00;100802.47;5011991;28;20246;-47
2022/06/08 01:03:09;;;;;;;14.57;7.95;;;;;;;11.50;100.00;100797.84;5009972;28;20637;-46
2022/06/08 01:05:39;;;;;;;12.60;7.22;;;;;;;11.46;100.00;100796.22;5010492;28;20599;-45
2022/06/08 01:08:12;;;;;;;12.38;7.75;;;;;;;11.45;100.00;100797.16;5010662;28;20243;-48
2022/06/08 01:10:52;;;;;;;12.10;8.07;;;;;;;11.54;100.00;100796.78;5010723;28;20679;-47
2022/06/08 01:13:20;;;;;;;10.63;7.68;;;;;;;11.52;100.00;100798.66;5025274;28;20188;-48
2022/06/08 01:15:48;;;;;;;11.23;7.53;;;;;;;11.58;100.00;100797.50;5027601;28;20179;-48
2022/06/08 01:18:17;;;;;;;11.90;8.23;;;;;;;11.55;100.00;100798.53;5030023;28;20668;-48
2022/06/08 01:20:52;;;;;;;9.70;6.72;;;;;;;11.57;100.00;100794.88;5030237;28;20205;-48
2022/06/08 01:23:22;;;;;;;11.05;7.15;;;;;;;11.56;100.00;100794.00;5029287;28;20183;-47
2022/06/08 01:25:54;;;;;;;13.63;6.50;;;;;;;11.59;100.00;100799.28;5020437;28;20189;-48
2022/06/08 01:28:36;;;;;;;8.63;6.78;;;;;;;11.55;100.00;100803.88;5010182;28;20185;-48
2022/06/08 01:31:16;;;;;;;10.52;5.82;;;;;;;11.59;100.00;100799.28;5010100;28;20627;-48
2022/06/08 01:33:55;;;;;;;10.13;6.32;;;;;;;11.59;100.00;100798.38;5009480;28;20259;-47
2022/06/08 01:36:37;;;;;;;11.43;6.53;;;;;;;11.61;100.00;100785.75;5011390;28;20180;-47
2022/06/08 01:39:09;;;;;;;12.75;6.30;;;;;;;11.66;100.00;100790.00;5010975;28;20275;-48
2022/06/08 01:41:43;;;;;;;10.07;6.90;;;;;;;11.63;100.00;100789.25;5011015;28;20671;-46
2022/06/08 01:44:24;;;;;;;11.70;6.90;;;;;;;11.69;100.00;100792.53;5011011;28;20270;-48
2022/06/08 01:47:14;;;;;;;12.93;6.60;;;;;;;11.67;100.00;100796.25;5009459;28;20196;-47
2022/06/08 01:50:06;;;;;;;12.48;6.75;;;;;;;11.71;100.00;100801.41;5011429;28;20181;-48
2022/06/08 01:52:37;;;;;;;13.48;7.78;;;;;;;11.66;100.00;100800.75;5009497;28;20588;-47
2022/06/08 01:55:10;;;;;;;11.68;7.97;;;;;;;11.58;100.00;100797.50;5009295;28;20668;-46
2022/06/08 01:57:50;;;;;;;12.40;7.10;;;;;;;11.63;100.00;100792.84;5011261;28;20255;-46
2022/06/08 02:00:23;;;;;;;13.80;7.45;;;;;;;11.61;100.00;100791.13;5009536;28;20212;-46
2022/06/08 02:03:11;;;;;;;11.75;7.30;;;;;;;11.60;100.00;100795.63;5009581;28;20533;-46
2022/06/08 02:05:57;;;;;;;10.48;6.70;;;;;;;11.70;100.00;100782.72;5009470;28;20184;-48
2022/06/08 02:08:50;;;;;;;14.18;7.35;;;;;;;11.67;100.00;100785.50;5009672;28;20333;-48
2022/06/08 02:11:35;;;;;;;9.25;6.30;;;;;;;11.70;100.00;100791.63;5000621;28;20216;-47
2022/06/08 02:14:15;;;;;;;10.57;6.35;;;;;;;11.55;100.00;100786.91;5008747;28;20288;-46
2022/06/08 02:16:50;;;;;;;12.45;7.00;;;;;;;11.53;100.00;100780.75;5009284;28;20331;-46
2022/06/08 02:19:29;;;;;;;11.13;7.00;;;;;;;11.48;100.00;100786.31;5008968;28;20211;-48
2022/06/08 02:22:03;;;;;;;10.98;6.80;;;;;;;11.50;100.00;100781.75;5008774;28;20188;-46
2022/06/08 02:24:41;;;;;;;8.55;6.60;;;;;;;11.58;100.00;100784.09;5008452;28;20243;-47
2022/06/08 02:27:17;;;;;;;10.85;6.90;;;;;;;11.49;100.00;100781.81;5008699;28;20187;-46
2022/06/08 02:29:51;;;;;;;13.32;7.38;;;;;;;11.55;100.00;100778.88;5008828;28;20184;-48
2022/06/08 02:35:30;;;;;;;11.25;6.47;;;;;;;11.57;100.00;100778.78;5008071;28;20211;-47
2022/06/08 02:38:08;;;;;;;11.57;7.22;;;;;;;11.45;100.00;100777.50;5008894;28;20533;-45
2022/06/08 02:40:37;;;;;;;10.77;7.13;;;;;;;11.45;100.00;100770.31;5008510;28;20195;-47
2022/06/08 02:43:12;;;;;;;10.70;6.70;;;;;;;11.49;100.00;100771.94;5007954;28;20184;-46
2022/06/08 02:45:43;;;;;;;8.52;5.65;;;;;;;11.54;100.00;100775.31;5008711;28;20173;-47
2022/06/08 02:48:13;;;;;;;10.82;6.75;;;;;;;11.50;100.00;100779.06;5008542;28;20187;-47
2022/06/08 02:50:50;;;;;;;14.32;7.05;;;;;;;11.44;100.00;100773.97;5008842;28;20208;-47
2022/06/08 02:53:16;;;;;;;12.45;7.32;;;;;;;11.46;100.00;100771.22;5007884;28;20188;-47
2022/06/08 02:55:50;;;;;;;11.77;7.30;;;;;;;11.46;100.00;100769.41;5008499;28;20180;-46
2022/06/08 02:58:23;;;;;;;15.98;7.95;;;;;;;11.43;100.00;100766.84;5008477;28;20628;-47
2022/06/08 03:00:58;;;;;;;10.02;7.93;;;;;;;11.42;100.00;100765.09;5009670;28;20165;-46
2022/06/08 03:03:38;;;;;;;12.05;8.10;;;;;;;11.50;100.00;100765.66;5012027;28;20225;-47
2022/06/08 03:06:09;;;;;;;13.85;9.00;;;;;;;11.41;100.00;100765.16;5012445;28;20172;-47
2022/06/08 03:08:41;;;;;;;13.93;8.80;;;;;;;11.45;100.00;100766.78;5012796;28;20559;-47
2022/06/08 03:11:08;;;;;;;12.93;8.68;;;;;;;11.48;100.00;100770.22;5015049;28;20192;-47
2022/06/08 03:13:39;;;;;;;16.35;9.02;;;;;;;11.44;100.00;100773.97;5031203;28;20268;-48
2022/06/08 03:16:35;;;;;;;13.35;9.68;;;;;;;11.52;100.00;100760.19;5029233;28;20170;-47
2022/06/08 03:19:06;;;;;;;12.35;10.15;;;;;;;11.47;100.00;100771.13;5030869;28;20202;-48
2022/06/08 03:21:35;;;;;;;14.02;9.93;;;;;;;11.48;100.00;100769.34;5032178;28;20208;-48
2022/06/08 03:24:26;;;;;;;12.35;10.00;;;;;;;11.38;100.00;100776.91;5032500;28;20616;-46
2022/06/08 03:27:17;;;;;;;14.63;9.88;;;;;;;11.46;100.00;100785.50;5014250;28;20200;-48
2022/06/08 03:29:49;;;;;;;12.63;10.00;;;;;;;11.44;100.00;100768.59;5012458;28;20164;-46
2022/06/08 03:32:16;;;;;;;12.18;9.88;;;;;;;11.47;100.00;100775.63;5012315;28;20213;-49
2022/06/08 03:34:42;;;;;;;12.73;9.23;;;;;;;11.50;100.00;100781.75;5011724;28;20690;-47
2022/06/08 03:37:09;;;;;;;14.07;9.50;;;;;;;11.43;100.00;100779.38;5029013;28;20184;-48
2022/06/08 03:39:38;;;;;;;12.02;9.75;;;;;;;11.58;100.00;100784.09;5012560;28;20186;-50
2022/06/08 03:42:04;;;;;;;14.65;9.48;;;;;;;11.57;100.00;100784.16;5013317;28;20542;-47
2022/06/08 03:44:30;;;;;;;11.35;9.20;;;;;;;11.58;100.00;100785.91;5011848;28;20292;-49
2022/06/08 03:47:04;;;;;;;10.68;9.57;;;;;;;11.60;100.00;100782.22;5012035;28;20213;-46
2022/06/08 03:49:30;;;;;;;15.90;10.00;;;;;;;11.55;100.00;100781.56;5013518;28;20231;-46
2022/06/08 03:51:58;;;;;;;15.02;10.85;;;;;;;11.53;100.00;100786.97;5012322;28;20254;-46
2022/06/08 03:54:29;;;;;;;13.25;11.73;;;;;;;11.57;100.00;100779.69;5011639;28;20254;-46
2022/06/08 03:57:00;;;;;;;12.55;11.05;;;;;;;11.63;100.00;100782.09;5012133;28;20168;-48
2022/06/08 03:59:26;;;;;;;13.85;11.60;;;;;;;11.57;100.00;100787.72;5013000;28;20165;-47
2022/06/08 04:01:56;;;;;;;15.40;11.88;;;;;;;11.60;100.00;100776.84;5012250;28;20173;-46
2022/06/08 04:04:22;;;;;;;14.48;12.88;;;;;;;11.61;100.00;100788.44;5012373;28;20200;-49
2022/06/08 04:06:49;;;;;;;15.60;13.10;;;;;;;11.61;100.00;100783.97;5011803;28;20173;-49
2022/06/08 04:09:16;;;;;;;16.90;13.20;;;;;;;11.60;100.00;100789.41;5011800;28;20184;-44
2022/06/08 04:11:44;;;;;;;16.10;13.30;;;;;;;11.62;100.00;100784.84;5011358;28;20601;-48
2022/06/08 04:14:10;;;;;;;12.50;11.40;;;;;;;11.76;100.00;100790.47;5009995;28;20270;-47
2022/06/08 04:16:36;;;;;;;15.75;13.30;;;;;;;11.72;100.00;100786.19;5011976;28;20660;-45
2022/06/08 04:19:07;;;;;;;14.00;12.70;;;;;;;11.81;100.00;100785.78;5011351;28;20203;-46
2022/06/08 04:21:35;;;;;;;13.15;11.77;;;;;;;11.78;100.00;100785.03;5011180;28;20544;-47
2022/06/08 04:24:05;;;;;;;13.20;11.90;;;;;;;11.86;100.00;100780.22;5010718;28;20204;-47
2022/06/08 04:26:32;;;;;;;14.00;11.95;;;;;;;11.92;100.00;100780.84;5011378;28;20185;-46
2022/06/08 04:29:14;;;;;;;16.42;12.82;;;;;;;11.87;100.00;100782.84;5011894;28;20656;-47
2022/06/08 04:31:40;;;;;;;13.75;12.43;;;;;;;11.96;100.00;100786.97;5011100;28;20243;-48
2022/06/08 04:34:19;;;;;;;15.77;14.05;;;;;;;12.00;100.00;100787.66;5010892;28;20219;-47
2022/06/08 04:36:45;;;;;;;15.55;13.25;;;;;;;11.98;100.00;100789.56;4995128;28;20177;-46
2022/06/08 04:39:13;;;;;;;16.88;13.75;;;;;;;12.04;100.00;100797.34;5012498;28;20169;-47
2022/06/08 04:41:44;;;;;;;15.57;13.15;;;;;;;12.00;100.00;100801.97;5011286;28;20176;-46
2022/06/08 04:44:10;;;;;;;14.77;13.30;;;;;;;12.03;100.00;100798.28;5011401;28;20250;-47
2022/06/08 04:46:38;;;;;;;14.70;13.10;;;;;;;12.12;100.00;100795.19;5011260;28;20188;-48
2022/06/08 04:49:05;;;;;;;15.65;12.68;;;;;;;12.25;100.00;100793.69;5011026;28;20184;-47
2022/06/08 04:51:32;;;;;;;14.25;12.52;;;;;;;12.33;100.00;100788.84;5010743;28;20200;-47
2022/06/08 04:53:58;;;;;;;17.50;12.52;;;;;;;12.28;100.00;100790.84;5010168;28;20680;-48
2022/06/08 04:56:25;;;;;;;12.57;11.15;;;;;;;12.16;100.00;100788.75;5010853;28;20177;-48
2022/06/08 04:58:54;;;;;;;12.80;11.38;;;;;;;12.31;100.00;100798.78;5015403;28;20762;-48
2022/06/08 05:01:21;;;;;;;12.90;11.38;;;;;;;12.29;100.00;100797.13;5033543;28;20251;-47
2022/06/08 05:03:48;;;;;;;12.95;10.85;;;;;;;12.41;100.00;100799.22;5029923;28;20199;-47
2022/06/08 05:06:15;;;;;;;14.60;10.48;;;;;;;12.27;100.00;100793.63;5030304;28;20556;-47
2022/06/08 05:08:41;;;;;;;11.07;9.75;;;;;;;12.37;100.00;100792.25;5029237;28;20191;-45
2022/06/08 05:11:08;;;;;;;15.35;9.98;;;;;;;12.46;100.00;100799.00;5030333;28;20200;-49
2022/06/08 05:13:36;;;;;;;14.80;9.10;;;;;;;12.46;100.00;100793.63;5029548;28;20583;-47
2022/06/08 05:16:06;;;;;;;15.50;9.35;;;;;;;12.55;100.00;100794.09;5030282;28;20175;-48
2022/06/08 05:18:34;;;;;;;10.68;8.80;;;;;;;12.62;100.00;100797.34;5030244;28;20191;-48
2022/06/08 05:21:02;;;;;;;18.27;8.98;;;;;;;12.62;100.00;100791.97;5029803;28;20230;-48
2022/06/08 05:23:34;;;;;;;12.00;8.93;;;;;;;12.65;100.00;100791.81;5028964;28;20204;-47
2022/06/08 05:26:04;;;;;;;14.15;7.85;;;;;;;12.59;100.00;100794.78;5018462;28;20177;-47
2022/06/08 05:28:30;;;;;;;12.55;8.07;;;;;;;12.63;100.00;100790.16;5010299;28;20183;-47
2022/06/08 05:30:59;;;;;;;14.25;7.65;;;;;;;12.75;100.00;100790.44;5010046;28;20205;-48
2022/06/08 05:33:29;;;;;;;10.73;7.85;;;;;;;12.86;100.00;100789.94;5009325;28;20601;-48
2022/06/08 05:35:59;;;;;;;16.55;9.13;;;;;;;12.65;99.40;100790.97;5010281;28;20767;-48
2022/06/08 05:38:25;;;;;;;9.93;7.43;;;;;;;12.82;99.64;100791.03;5011124;28;20208;-50
2022/06/08 05:40:50;;;;;;;14.38;7.88;;;;;;;12.71;99.58;100783.47;5011319;28;20539;-47
2022/06/08 05:43:17;;;;;;;14.65;8.23;;;;;;;12.88;99.47;100797.91;5010620;28;20181;-48
2022/06/08 05:45:50;;;;;;;12.25;9.18;;;;;;;12.74;99.48;100801.25;5009876;28;20212;-46
2022/06/08 05:48:16;;;;;;;13.13;9.18;;;;;;;12.78;99.96;100798.34;5010019;28;20181;-48
2022/06/08 05:50:44;;;;;;;13.57;9.32;;;;;;;12.67;99.82;100792.63;5009498;28;20181;-45
2022/06/08 05:53:14;;;;;;;11.02;9.25;;;;;;;12.67;99.87;100805.19;5009453;28;20185;-46
2022/06/08 05:55:40;;;;;;;14.68;9.60;;;;;;;12.77;99.71;100801.13;5009641;28;20279;-47
2022/06/08 05:58:06;;;;;;;12.30;10.07;;;;;;;12.85;99.52;100798.94;5009999;28;20224;-47
2022/06/08 06:00:36;;;;;;;11.05;9.15;;;;;;;12.96;99.02;100791.19;5009757;28;20263;-46
2022/06/08 06:03:01;;;;;;;15.50;9.85;;;;;;;13.16;98.72;100786.66;5009259;28;20630;-47
2022/06/08 06:05:30;;;;;;;15.05;8.50;;;;;;;13.17;97.85;100789.28;5009491;28;20415;-47
2022/06/08 06:07:59;;;;;;;10.98;8.57;;;;;;;13.05;97.72;100789.88;5009662;28;20185;-47
2022/06/08 06:10:33;;;;;;;12.48;8.52;;;;;;;13.14;97.96;100791.25;5019335;28;20651;-47
2022/06/08 06:13:00;;;;;;;12.57;8.98;;;;;;;13.29;97.48;100786.97;5055350;28;20655;-44
2022/06/08 06:15:37;;;;;;;12.43;7.57;;;;;;;13.83;95.95;100795.00;5029318;28;20191;-45
2022/06/08 06:18:07;;;;;;;11.60;7.20;;;;;;;14.19;94.63;100787.66;5028778;28;20183;-45
2022/06/08 06:20:34;;;;;;;10.05;6.22;;;;;;;14.24;92.06;100782.00;5047725;28;20659;-46
2022/06/08 06:23:23;;;;;;;9.82;5.95;;;;;;;14.66;89.95;100790.53;5030052;28;20200;-44
2022/06/08 06:26:05;;;;;;;9.95;5.82;;;;;;;14.11;88.64;100789.00;5030337;28;20386;-44
2022/06/08 06:28:44;;;;;;;10.05;5.65;;;;;;;14.43;88.81;100785.44;5061920;28;20242;-41
2022/06/08 06:31:30;;;;;;;7.68;4.47;;;;;;;14.46;87.21;100784.41;5029189;28;20663;-43
2022/06/08 06:34:05;;;;;;;9.65;4.85;;;;;;;14.49;86.25;100781.50;5061933;28;20236;-42
2022/06/08 06:36:32;;;;;;;9.43;5.18;;;;;;;14.76;85.00;100783.69;5061555;28;20631;-45
2022/06/08 06:39:01;;;;;;;7.10;4.80;;;;;;;15.24;84.39;100787.22;5062138;28;20172;-42
2022/06/08 06:41:29;;;;;;;11.68;5.57;;;;;;;15.47;82.30;100780.44;5045998;28;20180;-41
2022/06/08 06:43:55;;;;;;;9.07;5.30;;;;;;;14.79;83.31;100783.50;5028448;28;20257;-44
2022/06/08 06:46:32;;;;;;;5.90;5.20;;;;;;;14.49;84.34;100800.38;5028975;28;20183;-44
2022/06/08 06:49:04;;;;;;;7.80;4.45;;;;;;;14.35;84.93;100792.22;5062518;28;20191;-40
2022/06/08 06:51:31;;;;;;;6.65;4.80;;;;;;;14.42;85.60;100788.22;5030414;28;20577;-41
2022/06/08 06:53:56;;;;;;;12.85;5.20;;;;;;;14.57;85.33;100798.19;5062067;28;20277;-44
2022/06/08 06:56:22;;;;;;;9.25;4.30;;;;;;;14.53;84.74;100795.72;5062084;28;20204;-43
2022/06/08 06:58:54;;;;;;;7.32;3.75;;;;;;;14.83;83.74;100793.16;5030428;28;20160;-44
2022/06/08 07:01:22;;;;;;;6.10;3.33;;;;;;;14.83;82.81;100801.25;5028978;28;20168;-43
2022/06/08 07:03:49;;;;;;;8.38;3.45;;;;;;;14.50;82.80;100796.75;5028606;28;20199;-44
2022/06/08 07:06:15;;;;;;;5.47;3.10;;;;;;;14.63;83.06;100791.59;5054523;22;20270;-88
2022/06/08 07:08:42;;;;;;;6.70;3.67;;;;;;;14.72;82.47;100791.06;4945252;23;20315;-44
2022/06/08 07:13:57;;;;;;;6.20;2.90;;;;;;;15.14;82.71;100792.25;4976024;28;20212;-47
2022/06/08 07:16:23;;;;;;;6.13;3.50;;;;;;;15.44;82.22;100797.69;4988448;28;20177;-45
2022/06/08 07:18:49;;;;;;;5.55;3.05;;;;;;;15.88;80.24;100778.97;4988363;28;20279;-44
2022/06/08 07:21:16;;;;;;;4.63;2.88;;;;;;;15.19;80.39;100786.59;4983201;28;20173;-42
2022/06/08 07:23:42;;;;;;;6.93;3.38;;;;;;;14.91;80.92;100790.00;4985622;28;20576;-43
2022/06/08 07:26:08;;;;;;;7.32;3.22;;;;;;;15.01;81.52;100793.94;4988567;28;20178;-43
2022/06/08 07:28:34;;;;;;;7.07;2.92;;;;;;;15.01;81.73;100783.13;4989998;28;20178;-43
2022/06/08 07:31:00;;;;;;;4.22;2.78;;;;;;;15.35;81.06;100783.84;4987869;28;20221;-42
2022/06/08 07:33:26;;;;;;;6.00;3.10;;;;;;;15.10;80.95;100785.31;4989609;28;20201;-43
2022/06/08 07:35:52;;;;;;;8.75;3.13;;;;;;;14.92;81.91;100789.06;4990216;28;20277;-43
2022/06/08 07:38:18;;;;;;;7.07;3.15;;;;;;;15.02;82.43;100788.47;4989723;28;20162;-43
2022/06/08 07:40:43;;;;;;;9.55;3.63;;;;;;;15.11;81.75;100776.25;4990007;28;20192;-43
2022/06/08 07:43:10;;;;;;;4.60;2.85;;;;;;;15.35;82.05;100775.75;4990027;28;20632;-41
2022/06/08 07:45:35;;;;;;;5.82;3.08;;;;;;;15.72;81.28;100779.00;4990103;28;20177;-42
2022/06/08 07:50:45;;;;;;;8.18;3.40;;;;;;;16.70;76.63;100775.56;4993835;28;20181;-43
2022/06/08 07:53:11;;;;;;;7.05;3.15;;;;;;;16.40;76.54;100768.47;4991791;28;20181;-45
2022/06/08 07:55:37;;;;;;;6.05;3.53;;;;;;;16.98;77.23;100780.06;4994140;28;20235;-43
2022/06/08 07:58:03;;;;;;;4.80;2.90;;;;;;;16.97;75.06;100772.94;4993817;28;20201;-43
2022/06/08 08:00:29;;;;;;;5.50;3.22;;;;;;;17.21;72.97;100770.44;4992381;28;20181;-42
2022/06/08 08:02:55;;;;;;;5.18;2.83;;;;;;;17.20;72.89;100770.53;4993533;28;20154;-43
2022/06/08 08:05:22;;;;;;;5.88;4.28;;;;;;;16.74;73.76;100768.97;4993161;28;20201;-42
2022/06/08 08:07:51;;;;;;;7.72;3.63;;;;;;;16.89;73.53;100770.72;4993495;28;20192;-42
2022/06/08 08:10:23;;;;;;;8.60;3.60;;;;;;;17.17;73.70;100768.03;4992215;28;20246;-44
2022/06/08 08:12:51;;;;;;;5.13;3.40;;;;;;;17.41;73.40;100770.94;4993610;28;20194;-42
2022/06/08 08:15:18;;;;;;;5.28;3.83;;;;;;;17.20;71.92;100765.13;4992952;28;20241;-43
2022/06/08 08:17:44;;;;;;;3.53;3.13;;;;;;;17.45;72.53;100759.78;4991938;28;20176;-43
2022/06/08 08:20:13;;;;;;;6.10;3.20;;;;;;;17.41;72.95;100770.94;4991982;28;20173;-43
2022/06/08 08:22:39;;;;;;;4.90;3.15;;;;;;;17.24;72.12;100770.22;4991694;28;20173;-45
2022/06/08 08:25:05;;;;;;;5.80;3.30;;;;;;;16.91;74.11;100764.34;4989374;28;20204;-42
2022/06/08 08:27:30;;;;;;;5.78;3.25;;;;;;;16.84;75.68;100770.16;4973699;28;20182;-41
2022/06/08 08:29:56;;;;;;;5.65;4.22;;;;;;;16.61;75.33;100765.34;4986757;28;20177;-42
2022/06/08 08:32:22;;;;;;;8.00;4.68;;;;;;;16.22;75.84;100767.78;4977959;28;20237;-44
2022/06/08 08:34:47;;;;;;;7.47;5.10;;;;;;;16.44;75.71;100761.00;4972848;28;20206;-43
2022/06/08 08:37:13;;;;;;;6.18;4.30;;;;;;;16.74;76.51;100762.72;4973634;28;20297;-42
2022/06/08 08:39:38;;;;;;;4.70;3.92;;;;;;;16.82;75.11;100758.56;4992921;28;20225;-41
2022/06/08 08:42:20;;;;;;;7.20;4.63;;;;;;;16.73;75.14;100767.25;4993001;28;20192;-44
2022/06/08 08:44:49;;;;;;;5.28;3.95;;;;;;;16.93;74.21;100754.28;4991405;28;20623;-42
2022/06/08 08:47:35;;;;;;;7.00;4.57;;;;;;;16.63;74.68;100774.22;4993216;28;20651;-43
2022/06/08 08:50:19;;;;;;;7.63;4.13;;;;;;;16.66;76.71;100760.47;4981773;28;20174;-42
2022/06/08 08:52:50;;;;;;;8.85;4.05;;;;;;;16.93;75.28;100754.28;4973278;28;20286;-43
2022/06/08 08:55:39;;;;;;;5.88;4.07;;;;;;;16.98;74.64;100765.69;4972637;28;20602;-42
2022/06/08 08:58:16;;;;;;;5.97;4.43;;;;;;;17.31;73.32;100754.41;4972835;28;20583;-42
2022/06/08 09:00:55;;;;;;;5.95;4.20;;;;;;;17.42;72.75;100737.44;4973283;28;20415;-42
2022/06/08 09:03:23;;;;;;;6.07;4.63;;;;;;;17.73;71.40;100738.91;4972335;28;20201;-43
2022/06/08 09:05:56;;;;;;;4.93;4.10;;;;;;;18.21;69.61;100719.31;4973092;28;20189;-42
2022/06/08 09:08:23;;;;;;;8.85;4.85;;;;;;;18.46;68.85;100719.25;4973022;28;20185;-43
2022/06/08 09:10:50;;;;;;;6.25;4.90;;;;;;;18.37;68.09;100727.22;4971850;28;20660;-45
2022/06/08 09:13:23;;;;;;;7.35;5.07;;;;;;;18.52;69.17;100715.25;4972445;28;20174;-43
2022/06/08 09:15:56;;;;;;;7.35;5.35;;;;;;;18.51;66.77;100710.78;4972905;28;20178;-44
2022/06/08 09:18:33;;;;;;;6.90;4.90;;;;;;;17.70;70.60;100726.44;4971285;28;20192;-43
2022/06/08 09:21:01;;;;;;;6.18;4.75;;;;;;;17.65;71.02;100723.19;4972878;28;20845;-42
2022/06/08 09:23:41;;;;;;;7.25;4.90;;;;;;;17.85;69.41;100704.69;4972341;28;20291;-42
2022/06/08 09:26:15;;;;;;;6.45;4.88;;;;;;;17.88;71.34;100704.47;4984122;28;20203;-42
2022/06/08 09:28:41;;;;;;;7.65;4.35;;;;;;;17.59;71.28;100701.94;4991218;28;20189;-44
2022/06/08 09:31:31;;;;;;;6.00;4.68;;;;;;;17.84;71.16;100698.41;4991845;28;20493;-42
2022/06/08 09:34:27;;;;;;;5.28;4.22;;;;;;;18.26;69.81;100685.47;4991422;28;20208;-43
2022/06/08 09:37:08;;;;;;;7.22;4.35;;;;;;;18.22;70.44;100680.38;4987315;28;20676;-42
2022/06/08 09:39:35;;;;;;;6.88;4.75;;;;;;;17.76;70.31;100686.34;4991891;28;20263;-42
2022/06/08 09:42:24;;;;;;;7.88;4.07;;;;;;;18.30;71.09;100675.22;4992319;28;20158;-42
2022/06/08 09:45:19;;;;;;;9.30;4.72;;;;;;;18.09;70.41;100677.69;4991833;28;20600;-44
2022/06/08 09:51:30;;;;;;;7.63;5.20;;;;;;;18.30;69.37;100669.81;4989957;28;20696;-42
2022/06/08 09:54:08;;;;;;;6.88;5.40;;;;;;;18.62;69.33;100670.16;4991760;28;20205;-43
2022/06/08 09:56:49;;;;;;;7.40;4.65;;;;;;;19.02;69.12;100674.44;4992201;28;20267;-44
2022/06/08 09:59:39;;;;;;;6.68;5.00;;;;;;;18.92;67.94;100667.00;4991995;28;20267;-42
2022/06/08 10:02:39;;;;;;;9.05;5.95;;;;;;;17.67;68.98;100672.47;4992336;28;20192;-43
2022/06/08 10:05:26;;;;;;;6.47;5.38;;;;;;;18.56;69.92;100673.31;4991942;28;20565;-43
2022/06/08 10:08:14;;;;;;;6.22;5.57;;;;;;;19.32;65.90;100663.09;4991700;28;20268;-43
2022/06/08 10:11:01;;;;;;;9.75;5.40;;;;;;;19.44;67.30;100667.56;4990359;28;20181;-43
2022/06/08 10:13:42;;;;;;;5.63;4.80;;;;;;;19.79;65.16;100671.22;4991677;28;20216;-43
2022/06/08 10:16:22;;;;;;;8.63;4.93;;;;;;;19.90;66.42;100671.25;4991662;28;20272;-44
2022/06/08 10:18:54;;;;;;;4.93;4.25;;;;;;;20.20;63.68;100658.88;4990338;28;20189;-43
2022/06/08 10:21:32;;;;;;;6.50;5.18;;;;;;;20.15;62.71;100656.53;4991725;28;20259;-43
2022/06/08 10:24:16;;;;;;;7.43;5.30;;;;;;;19.55;66.62;100648.56;4991248;28;20201;-42
2022/06/08 10:26:46;;;;;;;6.57;4.68;;;;;;;20.04;63.44;100645.66;4991552;28;20229;-44
2022/06/08 10:29:58;;;;;;;6.65;4.95;;;;;;;20.14;62.85;100646.66;4991385;28;20169;-43
2022/06/08 10:32:32;;;;;;;5.80;5.20;;;;;;;19.50;63.65;100649.91;4960037;28;20228;-47
2022/06/08 10:35:13;;;;;;;7.25;5.93;;;;;;;19.48;64.11;100636.47;4990307;28;20200;-49
2022/06/08 10:37:41;;;;;;;6.65;5.30;;;;;;;20.07;61.99;100637.25;4992576;28;20184;-47
2022/06/08 10:40:09;;;;;;;9.80;5.90;;;;;;;20.25;63.83;100640.34;4992310;28;20207;-46
2022/06/08 10:42:40;;;;;;;6.55;5.05;;;;;;;20.34;64.54;100642.31;4992270;28;20185;-47
2022/06/08 10:45:37;;;;;;;6.43;5.82;;;;;;;19.76;62.55;100645.16;4992019;28;20201;-46
2022/06/08 10:48:14;;;;;;;10.40;5.68;;;;;;;20.09;63.43;100636.13;4992655;28;20240;-53
2022/06/08 10:50:45;;;;;;;9.93;5.30;;;;;;;19.24;65.53;100644.69;4992979;28;20185;-46
2022/06/08 10:56:34;;;;;;;6.55;4.93;;;;;;;20.71;62.74;100634.69;4992741;28;20169;-47
2022/06/08 10:59:03;;;;;;;7.47;5.18;;;;;;;20.15;63.25;100645.66;4993148;28;20192;-49
2022/06/08 11:01:50;;;;;;;6.00;5.40;;;;;;;20.06;63.48;100639.09;4993182;28;20208;-48
2022/06/08 11:04:30;;;;;;;7.35;5.05;;;;;;;20.04;64.40;100646.53;4992400;28;20189;-48
2022/06/08 11:07:00;;;;;;;7.97;4.95;;;;;;;20.14;63.61;100646.66;4992832;28;20267;-49
2022/06/08 11:09:33;;;;;;;6.68;5.13;;;;;;;20.18;64.21;100656.28;4991562;28;20208;-48
2022/06/08 11:12:10;;;;;;;6.85;5.15;;;;;;;20.45;63.59;100655.88;4991190;28;20726;-48
2022/06/08 11:14:48;;;;;;;6.97;5.43;;;;;;;20.15;63.46;100646.50;4972729;28;20550;-47
2022/06/08 11:17:57;;;;;;;5.72;4.40;;;;;;;19.98;63.90;100655.16;4971180;28;20178;-49
2022/06/08 11:20:27;;;;;;;7.30;4.80;;;;;;;19.83;64.90;100649.13;4913549;29;20179;-47
2022/06/08 11:22:59;;;;;;;4.85;4.28;;;;;;;19.78;65.14;100645.03;4915843;29;20184;-50
2022/06/08 11:25:31;;;;;;;7.63;6.10;;;;;;;19.34;66.16;100651.09;4946565;28;20205;-48
2022/06/08 11:28:34;;;;;;;9.63;6.25;;;;;;;19.37;65.74;100649.13;4995713;28;20193;-48
2022/06/08 11:31:04;;;;;;;5.65;4.78;;;;;;;19.89;66.76;100640.47;4995746;28;20212;-47
2022/06/08 11:33:51;;;;;;;8.13;4.82;;;;;;;19.79;62.31;100636.78;4977483;28;20210;-47
2022/06/08 11:36:39;;;;;;;7.07;5.78;;;;;;;19.79;62.62;100634.06;4977634;28;20237;-49
2022/06/08 11:39:19;;;;;;;6.00;5.13;;;;;;;19.75;65.28;100649.72;4977774;28;20252;-47
2022/06/08 11:41:58;;;;;;;7.07;5.60;;;;;;;19.75;62.77;100638.88;4977357;28;20537;-49
2022/06/08 11:44:31;;;;;;;7.63;5.75;;;;;;;19.43;63.47;100635.09;4976992;28;20210;-47
2022/06/08 11:47:06;;;;;;;8.82;5.22;;;;;;;19.56;66.85;100644.84;4976930;28;20167;-47
2022/06/08 11:49:33;;;;;;;6.43;4.90;;;;;;;19.86;65.33;100642.59;4976830;28;20174;-46
2022/06/08 11:52:23;;;;;;;6.35;5.20;;;;;;;20.93;62.55;100622.84;4977027;28;20194;-51
2022/06/08 11:55:23;;;;;;;6.63;5.43;;;;;;;20.54;61.15;100624.31;4976176;28;20229;-48
2022/06/08 11:57:54;;;;;;;5.15;4.65;;;;;;;20.75;60.96;100622.56;4942195;28;20296;-47